Time;durP1;ratioP1;P1;durP2;ratioP2;P2;SDS_P1;SDS_P2;PMS_P1;PMS_P2;Temp;Humidity;BMP_temperature;BMP_pressure;BME280_temperature;BME280_humidity;BME280_pressure;Samples;Min_cycle;Max_cycle;Signal;HPM_P1;HPM_P2
2022/08/06 06:14:27;;;;;;;4.75;2.63;;;25.70;99.90;;;;;;6117693;28;87972;-96
2022/08/06 06:18:06;;;;;;;5.20;2.92;;;25.70;99.90;;;;;;6145676;28;89036;-96
2022/08/06 06:21:16;;;;;;;4.38;3.67;;;25.60;99.90;;;;;;6134923;28;88600;-96
2022/08/06 06:24:27;;;;;;;3.45;3.03;;;25.70;99.90;;;;;;6134868;28;88255;-96
2022/08/06 06:27:38;;;;;;;3.47;3.17;;;25.70;99.90;;;;;;6135330;28;87971;-96
2022/08/06 06:30:48;;;;;;;4.85;4.30;;;25.70;99.90;;;;;;6135926;28;87636;-96
2022/08/06 06:34:01;;;;;;;5.15;4.25;;;25.80;99.90;;;;;;6135875;28;88451;-96
2022/08/06 06:37:11;;;;;;;4.15;3.75;;;25.80;99.90;;;;;;6136291;28;88745;-96
2022/08/06 06:40:26;;;;;;;4.18;3.78;;;25.80;99.90;;;;;;6135155;28;90979;-96
2022/08/06 06:43:35;;;;;;;4.82;4.10;;;25.80;99.90;;;;;;6135419;28;88340;-96
2022/08/06 06:46:44;;;;;;;4.50;4.10;;;25.70;99.90;;;;;;6135306;28;88474;-96
2022/08/06 06:49:50;;;;;;;4.50;3.90;;;25.70;99.90;;;;;;6135631;28;87137;-96
2022/08/06 06:52:54;;;;;;;4.75;4.10;;;25.70;99.90;;;;;;6134474;28;87975;-96
2022/08/06 06:55:58;;;;;;;4.47;3.88;;;25.70;99.90;;;;;;6135851;28;89298;-96
2022/08/06 06:59:05;;;;;;;4.38;3.97;;;25.70;99.90;;;;;;6135466;28;89101;-96
2022/08/06 07:02:19;;;;;;;4.28;3.88;;;25.70;99.90;;;;;;6137872;28;90108;-96
2022/08/06 07:05:23;;;;;;;4.22;3.80;;;25.70;99.90;;;;;;6138969;28;89104;-96
2022/08/06 07:08:30;;;;;;;4.68;3.70;;;25.70;99.90;;;;;;6139466;28;87072;-96
2022/08/06 07:11:33;;;;;;;4.43;4.03;;;25.70;99.90;;;;;;6139912;28;90033;-96
2022/08/06 07:14:38;;;;;;;4.30;3.90;;;25.70;99.90;;;;;;6139046;28;88400;-96
2022/08/06 07:17:42;;;;;;;4.32;3.92;;;25.70;99.90;;;;;;6138714;28;88284;-96
2022/08/06 07:20:45;;;;;;;4.25;3.85;;;25.70;99.90;;;;;;6139564;28;89441;-96
2022/08/06 07:23:52;;;;;;;5.00;4.18;;;25.60;99.90;;;;;;6139492;28;89381;-96
2022/08/06 07:26:56;;;;;;;4.55;4.00;;;25.70;99.90;;;;;;6139273;28;87946;-96
2022/08/06 07:30:02;;;;;;;4.45;4.05;;;25.70;99.90;;;;;;6139745;28;89077;-96
2022/08/06 07:33:06;;;;;;;4.50;4.15;;;25.70;99.90;;;;;;6139302;28;87643;-96
2022/08/06 07:36:09;;;;;;;5.00;4.53;;;25.70;99.90;;;;;;6138241;28;89184;-96
2022/08/06 07:39:19;;;;;;;5.32;4.40;;;25.70;99.90;;;;;;6139940;28;89038;-96
2022/08/06 07:42:24;;;;;;;5.75;5.15;;;25.70;99.90;;;;;;6140083;28;88237;-96
2022/08/06 07:45:32;;;;;;;5.53;4.88;;;25.60;99.90;;;;;;6139544;28;90527;-96
2022/08/06 07:48:39;;;;;;;5.55;4.97;;;25.60;99.90;;;;;;6139484;28;88939;-96
2022/08/06 07:51:44;;;;;;;9.18;5.18;;;25.60;99.90;;;;;;6140366;28;88575;-96
2022/08/06 07:54:47;;;;;;;5.70;5.18;;;25.50;99.90;;;;;;6128550;28;90190;-96
2022/08/06 07:57:50;;;;;;;5.93;5.32;;;25.60;99.90;;;;;;6125686;28;88258;-96
2022/08/06 08:00:52;;;;;;;6.13;5.20;;;25.60;99.90;;;;;;6130480;28;89091;-96
2022/08/06 08:07:18;;;;;;;5.40;4.90;;;25.60;99.90;;;;;;6136056;28;87372;-96
2022/08/06 08:10:21;;;;;;;5.20;4.70;;;25.60;99.90;;;;;;6131882;28;89590;-96
2022/08/06 08:13:24;;;;;;;5.13;4.63;;;25.60;99.90;;;;;;6135094;28;90450;-96
2022/08/06 08:16:27;;;;;;;5.05;4.55;;;25.60;99.90;;;;;;6138283;28;88409;-96
2022/08/06 08:19:33;;;;;;;6.70;4.97;;;25.70;99.90;;;;;;6139192;28;88378;-96
2022/08/06 08:22:37;;;;;;;5.82;5.22;;;25.60;99.90;;;;;;6138007;28;86994;-96
2022/08/06 08:25:40;;;;;;;9.98;5.18;;;25.60;99.90;;;;;;6138725;28;87370;-96
2022/08/06 08:28:42;;;;;;;5.88;5.38;;;25.50;99.90;;;;;;6138208;28;89610;-95
2022/08/06 08:31:47;;;;;;;6.15;5.55;;;25.50;99.90;;;;;;6137841;28;88469;-96
2022/08/06 08:34:51;;;;;;;6.25;5.15;;;25.50;99.90;;;;;;6138760;28;87663;-96
2022/08/06 08:37:53;;;;;;;5.80;5.30;;;25.50;99.90;;;;;;6137624;28;88239;-96
2022/08/06 08:40:57;;;;;;;6.60;5.10;;;25.50;99.90;;;;;;6137857;28;88079;-96
2022/08/06 08:44:06;;;;;;;5.55;5.00;;;25.50;99.90;;;;;;6137200;28;89914;-96
2022/08/06 08:47:10;;;;;;;5.43;5.03;;;25.40;99.90;;;;;;6137734;28;87955;-96
2022/08/06 08:50:14;;;;;;;5.38;4.88;;;25.40;99.90;;;;;;6136606;28;89452;-96
2022/08/06 08:53:35;;;;;;;5.35;4.82;;;25.40;99.90;;;;;;6137374;28;89308;-96
2022/08/06 08:56:38;;;;;;;5.95;5.35;;;25.40;99.90;;;;;;6138414;28;89034;-96
2022/08/06 08:59:41;;;;;;;6.88;5.30;;;25.40;99.90;;;;;;6138646;28;88075;-96
2022/08/06 09:02:44;;;;;;;9.05;7.43;;;25.40;99.90;;;;;;6137563;28;88303;-96
2022/08/06 09:05:50;;;;;;;944.30;651.92;;;25.40;99.90;;;;;;6139174;28;87604;-96
2022/08/06 09:08:53;;;;;;;309.52;184.50;;;25.50;99.90;;;;;;6137133;28;89496;-96
2022/08/06 09:11:56;;;;;;;30.73;21.58;;;25.50;99.90;;;;;;6135271;28;89303;-96
2022/08/06 09:14:58;;;;;;;14.18;11.10;;;25.50;99.90;;;;;;6136008;28;89444;-96
2022/08/06 09:18:02;;;;;;;11.13;8.98;;;25.50;99.90;;;;;;6135521;28;87915;-96
2022/08/06 09:21:06;;;;;;;12.35;8.50;;;25.50;99.90;;;;;;6139571;28;87111;-96
2022/08/06 09:24:09;;;;;;;7.40;5.18;;;25.40;99.90;;;;;;6136857;28;88172;-96
2022/08/06 09:27:13;;;;;;;3.15;2.20;;;25.30;99.90;;;;;;6136514;28;87021;-96
2022/08/06 09:30:18;;;;;;;2.40;2.20;;;25.20;99.90;;;;;;6136305;28;88591;-96
2022/08/06 09:33:20;;;;;;;2.58;1.40;;;25.20;99.90;;;;;;6135515;28;89493;-96
2022/08/06 09:36:24;;;;;;;1.35;1.20;;;25.00;99.90;;;;;;6136304;28;87101;-96
2022/08/06 09:39:35;;;;;;;3.28;1.48;;;24.90;99.90;;;;;;6135211;28;90639;-96
2022/08/06 09:42:40;;;;;;;1.98;1.30;;;24.60;99.90;;;;;;6135397;28;88456;-96
2022/08/06 09:45:46;;;;;;;2.00;1.48;;;24.50;99.90;;;;;;6134522;28;90022;-95
2022/08/06 09:49:01;;;;;;;1.70;1.30;;;24.50;99.90;;;;;;6134169;28;89113;-96
2022/08/06 09:52:16;;;;;;;2.92;1.40;;;24.50;99.90;;;;;;6134774;28;88351;-96
2022/08/06 09:55:30;;;;;;;2.47;1.30;;;24.50;99.90;;;;;;6135914;28;87957;-96
2022/08/06 09:58:35;;;;;;;2.75;1.33;;;24.50;99.90;;;;;;6145856;28;87943;-96
2022/08/06 10:01:41;;;;;;;1.75;1.50;;;24.40;99.90;;;;;;6153682;28;90325;-96
2022/08/06 10:04:43;;;;;;;2.75;1.40;;;24.30;99.90;;;;;;6130724;28;87161;-96
2022/08/06 10:07:48;;;;;;;1.77;1.27;;;24.40;99.90;;;;;;6144246;28;88016;-96
2022/08/06 10:10:52;;;;;;;3.05;1.60;;;24.40;99.90;;;;;;6140340;28;89034;-96
2022/08/06 10:13:54;;;;;;;2.45;1.63;;;24.40;99.90;;;;;;6152002;28;89334;-96
2022/08/06 10:17:08;;;;;;;1.98;1.77;;;24.40;99.90;;;;;;6150822;28;89568;-96
2022/08/06 10:20:15;;;;;;;2.38;1.70;;;24.40;99.90;;;;;;6152522;28;90201;-96
2022/08/06 10:23:19;;;;;;;1.88;1.70;;;24.40;99.90;;;;;;6150762;28;87151;-96
2022/08/06 10:26:26;;;;;;;5.43;2.00;;;24.40;99.90;;;;;;6153014;28;88613;-96
2022/08/06 10:29:35;;;;;;;2.78;1.58;;;24.40;99.90;;;;;;6159699;28;87756;-96
2022/08/06 10:33:03;;;;;;;1.42;1.30;;;24.50;99.90;;;;;;6161954;28;87298;-96
2022/08/06 10:44:38;;;;;;;6.53;2.00;;;24.60;99.90;;;;;;6140855;28;87034;-96
2022/08/06 10:52:15;;;;;;;5.57;1.67;;;24.70;99.90;;;;;;6138212;28;88010;-96
2022/08/06 10:58:48;;;;;;;4.68;2.10;;;24.80;99.90;;;;;;6091682;28;87994;-63
2022/08/06 11:02:02;;;;;;;2.42;1.88;;;24.80;99.90;;;;;;6098957;28;88817;-63
2022/08/06 11:05:09;;;;;;;2.00;1.67;;;24.80;99.90;;;;;;6093860;28;89043;-63
2022/08/06 11:08:45;;;;;;;2.47;1.70;;;24.90;99.90;;;;;;6102797;28;89061;-63
2022/08/06 11:11:59;;;;;;;1.73;1.50;;;24.90;99.90;;;;;;6080270;28;89173;-63
2022/08/06 11:15:05;;;;;;;2.65;2.03;;;24.90;99.90;;;;;;6089556;28;88356;-63
2022/08/06 11:18:09;;;;;;;2.67;1.52;;;24.90;99.90;;;;;;6093102;28;89067;-63
2022/08/06 11:21:39;;;;;;;3.40;1.88;;;24.90;99.90;;;;;;6094506;28;90521;-63
2022/08/06 11:24:51;;;;;;;3.92;1.80;;;24.90;99.90;;;;;;6094907;28;90044;-62
2022/08/06 11:27:56;;;;;;;1.85;1.45;;;24.90;99.90;;;;;;6089685;28;87926;-63
2022/08/06 11:31:01;;;;;;;2.90;1.60;;;24.90;99.90;;;;;;6096367;28;89453;-63
2022/08/06 11:34:05;;;;;;;2.00;1.42;;;24.90;99.90;;;;;;6103668;28;88986;-63
2022/08/06 11:37:07;;;;;;;1.55;1.40;;;24.90;99.90;;;;;;6094503;28;90303;-62
2022/08/06 11:40:10;;;;;;;2.03;1.58;;;24.90;99.90;;;;;;6102615;28;89109;-63
2022/08/06 11:43:12;;;;;;;2.90;1.63;;;24.90;99.90;;;;;;6093115;28;89096;-62
2022/08/06 11:46:26;;;;;;;2.70;1.67;;;24.90;99.90;;;;;;6091388;28;88423;-63
2022/08/06 11:49:37;;;;;;;1.75;1.50;;;24.90;99.90;;;;;;6097364;28;89388;-62
2022/08/06 11:52:41;;;;;;;1.80;1.70;;;24.90;99.90;;;;;;6101493;28;89340;-62
2022/08/06 11:56:04;;;;;;;2.17;1.50;;;24.90;99.90;;;;;;6099933;28;90201;-62
2022/08/06 11:59:13;;;;;;;1.63;1.50;;;24.90;99.90;;;;;;6103542;28;89452;-62
2022/08/06 12:02:38;;;;;;;1.65;1.55;;;24.90;99.90;;;;;;6099134;28;89601;-62
2022/08/06 12:05:47;;;;;;;1.60;1.50;;;24.90;99.90;;;;;;6091305;28;87984;-62
2022/08/06 12:09:07;;;;;;;1.30;1.20;;;24.90;99.90;;;;;;6100074;28;89039;-62
2022/08/06 12:12:38;;;;;;;1.88;1.50;;;24.90;99.90;;;;;;6101009;28;88364;-63
2022/08/06 12:15:41;;;;;;;1.63;1.52;;;24.90;99.90;;;;;;6105372;28;88988;-62
2022/08/06 12:18:44;;;;;;;1.65;1.55;;;24.90;99.90;;;;;;6090283;28;88368;-62
2022/08/06 12:21:53;;;;;;;1.67;1.58;;;25.00;99.90;;;;;;6091632;28;89400;-62
2022/08/06 12:24:58;;;;;;;2.47;1.70;;;24.90;99.90;;;;;;6104765;28;89422;-62
2022/08/06 12:28:01;;;;;;;1.73;1.63;;;24.90;99.90;;;;;;6095735;28;89984;-62
2022/08/06 12:31:03;;;;;;;1.73;1.63;;;24.90;99.90;;;;;;6097841;28;88310;-62
2022/08/06 12:34:07;;;;;;;2.25;1.60;;;24.90;99.90;;;;;;6088871;28;89379;-62
2022/08/06 12:37:09;;;;;;;1.73;1.55;;;25.00;99.90;;;;;;6093003;28;87965;-62
2022/08/06 12:40:27;;;;;;;1.60;1.50;;;24.90;99.90;;;;;;6100559;28;89122;-62
2022/08/06 12:43:30;;;;;;;2.15;1.50;;;25.00;99.90;;;;;;6096587;28;89226;-61
2022/08/06 12:46:32;;;;;;;3.22;1.65;;;25.00;99.90;;;;;;6098731;28;89071;-62
2022/08/06 12:49:36;;;;;;;2.05;1.60;;;25.00;99.90;;;;;;6098744;28;88700;-62
2022/08/06 12:52:38;;;;;;;2.38;1.88;;;25.00;99.90;;;;;;6088184;28;89076;-62
2022/08/06 12:55:44;;;;;;;1.65;1.55;;;24.90;99.90;;;;;;6106161;28;88992;-62
2022/08/06 12:58:46;;;;;;;2.80;1.88;;;24.90;99.90;;;;;;6108468;28;89970;-62
2022/08/06 13:01:48;;;;;;;2.47;1.85;;;24.90;99.90;;;;;;6097082;28;88461;-62
2022/08/06 13:04:55;;;;;;;3.78;1.90;;;24.90;99.90;;;;;;6093989;28;89062;-62
2022/08/06 13:07:58;;;;;;;3.05;2.00;;;24.90;99.90;;;;;;6105274;28;89460;-62
2022/08/06 13:11:00;;;;;;;3.83;1.83;;;24.90;99.90;;;;;;6106093;28;89111;-62
2022/08/06 13:14:11;;;;;;;2.90;2.03;;;24.90;99.90;;;;;;6106768;28;89041;-61
2022/08/06 13:17:14;;;;;;;3.45;1.77;;;24.90;99.90;;;;;;6096840;28;88802;-62
2022/08/06 13:20:18;;;;;;;1.90;1.65;;;24.90;99.90;;;;;;6101695;28;88478;-62
2022/08/06 13:23:29;;;;;;;2.45;1.50;;;24.90;99.90;;;;;;6097203;28;89104;-62
2022/08/06 13:26:33;;;;;;;2.58;1.77;;;24.90;99.90;;;;;;6098568;28;89110;-62
2022/08/06 13:29:35;;;;;;;2.13;1.90;;;24.90;99.90;;;;;;6100289;28;90036;-62
2022/08/06 13:32:40;;;;;;;2.15;1.95;;;24.90;99.90;;;;;;6098021;28;89100;-62
2022/08/06 13:35:43;;;;;;;1.80;1.63;;;24.90;99.90;;;;;;6098857;28;89197;-61
2022/08/06 13:38:45;;;;;;;2.28;1.90;;;24.90;99.90;;;;;;6107070;28;90208;-62
2022/08/06 13:41:48;;;;;;;2.38;1.80;;;24.90;99.90;;;;;;6105900;28;89426;-62
2022/08/06 13:44:50;;;;;;;2.08;1.70;;;24.90;99.90;;;;;;6097881;28;89022;-62
2022/08/06 13:47:52;;;;;;;3.17;1.75;;;24.90;99.90;;;;;;6098131;28;88965;-63
2022/08/06 13:50:55;;;;;;;2.05;1.63;;;24.90;99.90;;;;;;6098328;28;88744;-62
2022/08/06 13:53:57;;;;;;;1.80;1.70;;;24.90;99.90;;;;;;6106093;28;89341;-59
2022/08/06 13:56:59;;;;;;;2.30;1.90;;;24.90;99.90;;;;;;6103128;28;89131;-62
2022/08/06 14:00:01;;;;;;;2.20;2.00;;;24.90;99.90;;;;;;6099758;28;90511;-62
2022/08/06 14:03:04;;;;;;;4.28;2.50;;;24.90;99.90;;;;;;6090748;28;89103;-61
2022/08/06 14:06:08;;;;;;;5.65;2.40;;;24.90;99.90;;;;;;6098150;28;89126;-63
2022/08/06 14:09:10;;;;;;;6.57;2.58;;;24.90;99.90;;;;;;6105757;28;87888;-64
2022/08/06 14:12:12;;;;;;;3.22;2.22;;;24.90;99.90;;;;;;6097401;28;89141;-62
2022/08/06 14:15:14;;;;;;;3.63;2.20;;;24.90;99.90;;;;;;6103119;28;89308;-63
2022/08/06 14:18:17;;;;;;;3.05;2.00;;;25.00;99.90;;;;;;6099194;28;89009;-63
2022/08/06 14:21:20;;;;;;;3.47;2.20;;;25.00;99.90;;;;;;6094441;28;88236;-62
2022/08/06 14:24:22;;;;;;;3.08;2.15;;;25.00;99.90;;;;;;6095450;28;89169;-62
2022/08/06 14:27:24;;;;;;;5.03;2.10;;;24.90;99.90;;;;;;6092854;28;89173;-62
2022/08/06 14:30:27;;;;;;;2.90;2.60;;;24.90;99.90;;;;;;6105457;28;88936;-63
2022/08/06 14:33:29;;;;;;;3.22;2.92;;;24.90;99.90;;;;;;6092227;28;89060;-63
2022/08/06 14:36:33;;;;;;;3.25;2.75;;;25.00;99.90;;;;;;6100923;28;88030;-62
2022/08/06 14:39:35;;;;;;;3.92;3.00;;;24.90;99.90;;;;;;6094771;28;89400;-62
2022/08/06 14:45:59;;;;;;;4.60;2.97;;;24.90;99.90;;;;;;6096072;28;88429;-63
2022/08/06 14:49:02;;;;;;;4.20;3.53;;;24.90;99.90;;;;;;6105655;28;88986;-62
2022/08/06 14:52:06;;;;;;;7.43;3.90;;;25.00;99.90;;;;;;6098288;28;89516;-63
2022/08/06 14:55:09;;;;;;;8.73;4.05;;;25.00;99.90;;;;;;6098590;28;89248;-62
2022/08/06 14:58:11;;;;;;;10.20;4.22;;;25.00;99.90;;;;;;6099279;28;89416;-63
2022/08/06 15:01:13;;;;;;;12.43;4.65;;;25.00;99.90;;;;;;6094308;28;89998;-63
2022/08/06 15:04:15;;;;;;;8.07;3.80;;;25.00;99.90;;;;;;6107665;28;89048;-62
2022/08/06 15:07:20;;;;;;;6.03;3.15;;;25.00;99.90;;;;;;6085918;28;87930;-62
2022/08/06 15:10:22;;;;;;;5.32;3.00;;;25.00;99.90;;;;;;6098025;28;88962;-62
2022/08/06 15:13:24;;;;;;;5.43;2.67;;;25.00;99.90;;;;;;6094309;28;89152;-63
2022/08/06 15:16:26;;;;;;;10.52;4.35;;;25.00;99.90;;;;;;6086770;28;89135;-62
2022/08/06 15:19:28;;;;;;;15.27;6.28;;;25.00;99.90;;;;;;6101989;28;88892;-63
2022/08/06 15:22:31;;;;;;;21.75;8.10;;;25.00;99.90;;;;;;6098642;28;88335;-63
2022/08/06 15:25:33;;;;;;;13.60;5.65;;;25.00;99.90;;;;;;6090093;28;89185;-62
2022/08/06 15:28:35;;;;;;;11.38;5.25;;;25.00;99.90;;;;;;6092572;28;88699;-62
2022/08/06 15:31:38;;;;;;;8.52;4.50;;;25.00;99.90;;;;;;6108370;28;90252;-63
2022/08/06 15:34:40;;;;;;;6.20;3.33;;;25.00;99.90;;;;;;6100949;28;88095;-62
2022/08/06 15:37:43;;;;;;;5.63;3.38;;;25.00;99.90;;;;;;6100455;28;89036;-62
2022/08/06 15:40:45;;;;;;;6.47;3.70;;;25.00;99.90;;;;;;6105180;28;89027;-62
2022/08/06 15:43:47;;;;;;;5.07;2.55;;;25.00;99.90;;;;;;6096673;28;89193;-62
2022/08/06 15:46:49;;;;;;;3.65;2.58;;;25.00;99.90;;;;;;6098718;28;89562;-62
2022/08/06 15:49:51;;;;;;;3.30;2.40;;;25.00;99.90;;;;;;6109917;28;89310;-62
2022/08/06 15:52:55;;;;;;;2.75;2.15;;;25.00;99.90;;;;;;6101533;28;87979;-62
2022/08/06 15:55:57;;;;;;;3.08;2.00;;;24.90;99.90;;;;;;6100464;28;89058;-62
2022/08/06 15:58:59;;;;;;;2.50;2.03;;;25.00;99.90;;;;;;6088662;28;89079;-63
2022/08/06 16:02:01;;;;;;;2.40;1.80;;;24.90;99.90;;;;;;6087565;28;90321;-62
2022/08/06 16:05:04;;;;;;;3.25;2.33;;;24.90;99.90;;;;;;6092463;28;89476;-63
2022/08/06 16:08:09;;;;;;;2.40;2.00;;;24.90;99.90;;;;;;6110432;28;89483;-63
2022/08/06 16:11:12;;;;;;;2.30;2.10;;;24.90;99.90;;;;;;6097754;28;87977;-63
2022/08/06 16:14:14;;;;;;;2.35;2.10;;;24.90;99.90;;;;;;6099478;28;89071;-63
2022/08/06 16:17:16;;;;;;;2.30;2.10;;;24.90;99.90;;;;;;6111099;28;88490;-63
2022/08/06 16:20:19;;;;;;;2.00;1.90;;;24.90;99.90;;;;;;6103375;28;89063;-62
2022/08/06 16:23:22;;;;;;;2.28;2.08;;;24.90;99.90;;;;;;6104572;28;88393;-63
2022/08/06 16:26:24;;;;;;;2.20;2.00;;;24.90;99.90;;;;;;6108026;28;89117;-63
2022/08/06 16:29:26;;;;;;;2.00;1.90;;;24.90;99.90;;;;;;6093844;28;89248;-62
2022/08/06 16:32:28;;;;;;;2.50;2.20;;;24.90;99.90;;;;;;6102792;28;90053;-62
2022/08/06 16:35:30;;;;;;;2.63;2.10;;;24.90;99.90;;;;;;6098118;28;89129;-62
2022/08/06 16:38:34;;;;;;;3.65;2.10;;;24.90;99.90;;;;;;6088318;28;89145;-62
2022/08/06 16:41:35;;;;;;;2.17;1.98;;;24.90;99.90;;;;;;6110381;28;89168;-63
2022/08/06 16:44:38;;;;;;;2.30;1.95;;;24.90;99.90;;;;;;6107761;28;89526;-62
2022/08/06 16:47:40;;;;;;;2.22;2.03;;;24.90;99.90;;;;;;6098051;28;88804;-62
2022/08/06 16:50:43;;;;;;;2.72;2.28;;;24.90;99.90;;;;;;6109350;28;89132;-62
2022/08/06 16:53:46;;;;;;;2.30;2.10;;;24.90;99.90;;;;;;6098355;28;88418;-63
2022/08/06 16:56:48;;;;;;;2.10;1.90;;;24.90;99.90;;;;;;6094607;28;89153;-62
2022/08/06 16:59:50;;;;;;;2.40;2.20;;;24.90;99.90;;;;;;6099232;28;89456;-62
2022/08/06 17:02:53;;;;;;;2.50;2.30;;;24.80;99.90;;;;;;6098976;28;89316;-62
2022/08/06 17:05:55;;;;;;;2.40;2.20;;;24.90;99.90;;;;;;6087205;28;89351;-62
2022/08/06 17:08:59;;;;;;;2.40;2.20;;;24.90;99.90;;;;;;6099740;28;89424;-62
2022/08/06 17:12:01;;;;;;;4.10;2.40;;;24.90;99.90;;;;;;6107682;28;89160;-62
2022/08/06 17:15:04;;;;;;;2.50;2.30;;;24.90;99.90;;;;;;6089462;28;90426;-62
2022/08/06 17:18:07;;;;;;;2.30;2.10;;;24.90;99.90;;;;;;6103323;28;89124;-62
2022/08/06 17:21:09;;;;;;;2.40;2.15;;;24.80;99.90;;;;;;6109971;28;88926;-62
2022/08/06 17:24:12;;;;;;;2.50;2.20;;;24.90;99.90;;;;;;6108662;28;88533;-62
2022/08/06 17:27:15;;;;;;;2.45;2.22;;;24.90;99.90;;;;;;6098848;28;89449;-63
2022/08/06 17:30:17;;;;;;;3.17;2.53;;;24.90;99.90;;;;;;6098493;28;89173;-63
2022/08/06 17:33:19;;;;;;;2.78;2.58;;;24.90;99.90;;;;;;6099943;28;88982;-63
2022/08/06 17:36:21;;;;;;;2.47;2.28;;;24.90;99.90;;;;;;6086930;28;88795;-62
2022/08/06 17:39:25;;;;;;;2.15;2.03;;;24.90;99.90;;;;;;6107832;28;89042;-62
2022/08/06 17:42:27;;;;;;;2.70;2.17;;;24.90;99.90;;;;;;6099536;28;89393;-62
2022/08/06 17:45:29;;;;;;;3.35;2.30;;;24.90;99.90;;;;;;6091687;28;88997;-62
2022/08/06 17:48:32;;;;;;;2.85;2.40;;;24.80;99.90;;;;;;6096699;28;89039;-62
2022/08/06 17:51:34;;;;;;;2.42;2.22;;;24.80;99.90;;;;;;6093113;28;89285;-62
2022/08/06 17:54:38;;;;;;;3.00;2.38;;;24.80;99.90;;;;;;6088998;28;89246;-63
2022/08/06 17:57:40;;;;;;;2.70;2.50;;;24.80;99.90;;;;;;6106422;28;89095;-62
2022/08/06 18:00:42;;;;;;;2.35;2.05;;;24.80;99.90;;;;;;6105756;28;89058;-62
2022/08/06 18:03:44;;;;;;;3.05;2.30;;;24.70;99.90;;;;;;6106916;28;90086;-63
2022/08/06 18:06:46;;;;;;;2.25;1.92;;;24.80;99.90;;;;;;6095937;28;89116;-63
2022/08/06 18:13:09;;;;;;;4.45;2.20;;;24.80;99.90;;;;;;6091339;28;87156;-62
2022/08/06 18:16:11;;;;;;;2.63;2.40;;;24.80;99.90;;;;;;6099256;28;88122;-63
2022/08/06 18:19:13;;;;;;;3.63;2.25;;;24.80;99.90;;;;;;6092362;28;89113;-63
2022/08/06 18:22:17;;;;;;;3.83;2.30;;;24.70;99.90;;;;;;6096786;28;89157;-62
2022/08/06 18:25:21;;;;;;;2.53;2.17;;;24.80;99.90;;;;;;6092122;28;87340;-63
2022/08/06 18:28:23;;;;;;;3.70;2.53;;;24.80;99.90;;;;;;6104555;28;89091;-62
2022/08/06 18:31:25;;;;;;;4.40;2.63;;;24.70;99.90;;;;;;6105435;28;88091;-61
2022/08/06 18:34:27;;;;;;;3.08;2.50;;;24.80;99.90;;;;;;6093068;28;90180;-62
2022/08/06 18:37:29;;;;;;;3.35;2.15;;;24.70;99.90;;;;;;6092459;28;89401;-62
2022/08/06 18:40:33;;;;;;;2.40;2.20;;;24.80;99.90;;;;;;6100974;28;89215;-62
2022/08/06 18:43:35;;;;;;;3.13;2.40;;;24.80;99.90;;;;;;6092600;28;89408;-62
2022/08/06 18:46:37;;;;;;;4.43;2.42;;;24.80;99.90;;;;;;6104172;28;88972;-61
2022/08/06 18:49:39;;;;;;;2.55;2.30;;;24.80;99.90;;;;;;6100262;28;89151;-62
2022/08/06 18:52:41;;;;;;;2.70;2.22;;;24.80;99.90;;;;;;6107786;28;87966;-62
2022/08/06 18:55:44;;;;;;;3.67;2.25;;;24.80;99.90;;;;;;6086048;28;88387;-62
2022/08/06 18:58:46;;;;;;;2.45;2.25;;;24.80;99.90;;;;;;6087429;28;89022;-63
2022/08/06 19:01:48;;;;;;;2.50;2.28;;;24.80;99.90;;;;;;6099713;28;87891;-62
2022/08/06 19:04:50;;;;;;;2.47;2.22;;;24.90;99.90;;;;;;6094396;28;88856;-62
2022/08/06 19:07:52;;;;;;;2.67;2.05;;;24.90;99.90;;;;;;6106817;28;89140;-61
2022/08/06 19:10:56;;;;;;;3.28;2.13;;;24.80;99.90;;;;;;6095716;28;89249;-61
2022/08/06 19:13:58;;;;;;;2.25;1.90;;;24.90;99.90;;;;;;6106378;28;89058;-61
2022/08/06 19:17:00;;;;;;;7.32;4.57;;;24.90;99.90;;;;;;6107418;28;89004;-61
2022/08/06 19:20:02;;;;;;;13.52;8.85;;;24.90;99.90;;;;;;6097185;28;89176;-61
2022/08/06 19:23:05;;;;;;;12.25;7.10;;;24.90;99.90;;;;;;6109962;28;89082;-61
2022/08/06 19:26:08;;;;;;;14.70;6.82;;;24.90;99.90;;;;;;6109811;28;88387;-62
2022/08/06 19:29:10;;;;;;;17.27;7.13;;;24.90;99.90;;;;;;6106518;28;89103;-60
2022/08/06 19:32:12;;;;;;;11.75;6.55;;;24.90;99.90;;;;;;6106174;28;89034;-61
2022/08/06 19:35:14;;;;;;;12.00;6.60;;;24.90;99.90;;;;;;6104477;28;90028;-61
2022/08/06 19:38:16;;;;;;;12.48;6.40;;;24.90;99.90;;;;;;6110918;28;89331;-61
2022/08/06 19:41:20;;;;;;;10.00;5.57;;;24.80;99.90;;;;;;6108691;28;89486;-61
2022/08/06 19:44:22;;;;;;;8.15;5.05;;;24.90;99.90;;;;;;6099344;28;90270;-61
2022/08/06 19:47:24;;;;;;;6.22;4.18;;;24.90;99.90;;;;;;6102817;28;89138;-61
2022/08/06 19:50:26;;;;;;;6.65;4.03;;;24.90;99.90;;;;;;6091986;28;89072;-61
